sensor_id;sensor_type;location;lat;lon;timestamp;temperature;humidity
12268;DHT22;6196;48.398;11.736;2023-12-20T00:02:17;5.70;99.90
12268;DHT22;6196;48.398;11.736;2023-12-20T00:04:44;5.70;99.90
12268;DHT22;6196;48.398;11.736;2023-12-20T00:07:11;5.80;99.90
12268;DHT22;6196;48.398;11.736;2023-12-20T00:09:38;5.80;99.90
12268;DHT22;6196;48.398;11.736;2023-12-20T00:12:05;5.80;99.90
12268;DHT22;6196;48.398;11.736;2023-12-20T00:14:32;5.80;99.90
12268;DHT22;6196;48.398;11.736;2023-12-20T00:16:59;5.90;99.90
12268;DHT22;6196;48.398;11.736;2023-12-20T00:19:26;6.10;99.90
12268;DHT22;6196;48.398;11.736;2023-12-20T00:21:53;5.90;99.90
12268;DHT22;6196;48.398;11.736;2023-12-20T00:24:20;5.80;99.90
12268;DHT22;6196;48.398;11.736;2023-12-20T00:26:47;5.70;99.90
12268;DHT22;6196;48.398;11.736;2023-12-20T00:29:14;5.70;99.90
12268;DHT22;6196;48.398;11.736;2023-12-20T00:31:41;6.20;99.90
12268;DHT22;6196;48.398;11.736;2023-12-20T00:34:08;5.80;99.90
12268;DHT22;6196;48.398;11.736;2023-12-20T00:36:35;5.80;99.90
12268;DHT22;6196;48.398;11.736;2023-12-20T00:39:02;5.70;99.90
12268;DHT22;6196;48.398;11.736;2023-12-20T00:41:29;5.70;99.90
12268;DHT22;6196;48.398;11.736;2023-12-20T00:43:56;5.70;99.90
12268;DHT22;6196;48.398;11.736;2023-12-20T00:46:23;5.60;99.90
12268;DHT22;6196;48.398;11.736;2023-12-20T00:48:50;5.60;99.90
12268;DHT22;6196;48.398;11.736;2023-12-20T00:51:17;5.60;99.90
12268;DHT22;6196;48.398;11.736;2023-12-20T00:53:44;5.60;99.90
12268;DHT22;6196;48.398;11.736;2023-12-20T00:56:12;5.60;99.90
12268;DHT22;6196;48.398;11.736;2023-12-20T00:58:39;5.60;99.90
12268;DHT22;6196;48.398;11.736;2023-12-20T01:01:06;5.70;99.90
12268;DHT22;6196;48.398;11.736;2023-12-20T01:03:33;5.60;99.90
12268;DHT22;6196;48.398;11.736;2023-12-20T01:06:00;5.70;99.90
12268;DHT22;6196;48.398;11.736;2023-12-20T01:08:27;5.70;99.90
12268;DHT22;6196;48.398;11.736;2023-12-20T01:10:54;5.80;99.90
12268;DHT22;6196;48.398;11.736;2023-12-20T01:13:21;5.80;99.90
12268;DHT22;6196;48.398;11.736;2023-12-20T01:15:48;5.80;99.90
12268;DHT22;6196;48.398;11.736;2023-12-20T01:18:15;5.90;99.90
12268;DHT22;6196;48.398;11.736;2023-12-20T01:20:42;5.90;99.90
12268;DHT22;6196;48.398;11.736;2023-12-20T01:23:09;5.90;99.90
12268;DHT22;6196;48.398;11.736;2023-12-20T01:25:36;6.00;99.90
12268;DHT22;6196;48.398;11.736;2023-12-20T01:28:03;5.90;99.90
12268;DHT22;6196;48.398;11.736;2023-12-20T01:30:30;5.80;99.90
12268;DHT22;6196;48.398;11.736;2023-12-20T01:32:59;5.80;99.90
12268;DHT22;6196;48.398;11.736;2023-12-20T01:35:27;5.90;99.90
12268;DHT22;6196;48.398;11.736;2023-12-20T01:37:54;6.00;99.90
12268;DHT22;6196;48.398;11.736;2023-12-20T01:40:24;6.00;99.90
12268;DHT22;6196;48.398;11.736;2023-12-20T01:42:59;6.00;99.90
12268;DHT22;6196;48.398;11.736;2023-12-20T01:45:27;6.00;99.90
12268;DHT22;6196;48.398;11.736;2023-12-20T01:47:55;6.00;99.90
12268;DHT22;6196;48.398;11.736;2023-12-20T01:50:23;6.10;99.90
12268;DHT22;6196;48.398;11.736;2023-12-20T01:52:52;6.10;99.90
12268;DHT22;6196;48.398;11.736;2023-12-20T01:55:20;6.00;99.90
12268;DHT22;6196;48.398;11.736;2023-12-20T01:57:47;6.00;99.90
12268;DHT22;6196;48.398;11.736;2023-12-20T02:00:15;6.10;99.90
12268;DHT22;6196;48.398;11.736;2023-12-20T02:02:43;6.10;99.90
12268;DHT22;6196;48.398;11.736;2023-12-20T02:05:11;6.10;99.90
12268;DHT22;6196;48.398;11.736;2023-12-20T02:07:39;6.10;99.90
12268;DHT22;6196;48.398;11.736;2023-12-20T02:10:06;6.00;99.90
12268;DHT22;6196;48.398;11.736;2023-12-20T02:12:34;6.00;99.90
12268;DHT22;6196;48.398;11.736;2023-12-20T02:15:02;6.00;99.90
12268;DHT22;6196;48.398;11.736;2023-12-20T02:17:30;6.00;99.90
12268;DHT22;6196;48.398;11.736;2023-12-20T02:19:58;6.00;99.90
12268;DHT22;6196;48.398;11.736;2023-12-20T02:22:25;6.00;99.90
12268;DHT22;6196;48.398;11.736;2023-12-20T02:24:52;6.00;99.90
12268;DHT22;6196;48.398;11.736;2023-12-20T02:27:19;6.00;99.90
12268;DHT22;6196;48.398;11.736;2023-12-20T02:29:47;5.90;99.90
12268;DHT22;6196;48.398;11.736;2023-12-20T02:32:15;5.90;99.90
12268;DHT22;6196;48.398;11.736;2023-12-20T02:34:43;5.90;99.90
12268;DHT22;6196;48.398;11.736;2023-12-20T02:37:10;5.90;99.90
12268;DHT22;6196;48.398;11.736;2023-12-20T02:39:37;6.00;99.90
12268;DHT22;6196;48.398;11.736;2023-12-20T02:42:04;6.00;99.90
12268;DHT22;6196;48.398;11.736;2023-12-20T02:44:31;5.90;99.90
12268;DHT22;6196;48.398;11.736;2023-12-20T02:46:58;5.90;99.90
12268;DHT22;6196;48.398;11.736;2023-12-20T02:49:24;5.90;99.90
12268;DHT22;6196;48.398;11.736;2023-12-20T02:51:52;6.00;99.90
12268;DHT22;6196;48.398;11.736;2023-12-20T02:54:18;5.90;99.90
12268;DHT22;6196;48.398;11.736;2023-12-20T02:56:45;5.90;99.90
12268;DHT22;6196;48.398;11.736;2023-12-20T02:59:13;6.00;99.90
12268;DHT22;6196;48.398;11.736;2023-12-20T03:01:43;5.90;99.90
12268;DHT22;6196;48.398;11.736;2023-12-20T03:04:11;5.90;99.90
12268;DHT22;6196;48.398;11.736;2023-12-20T03:06:38;5.90;99.90
12268;DHT22;6196;48.398;11.736;2023-12-20T03:09:05;5.90;99.90
12268;DHT22;6196;48.398;11.736;2023-12-20T03:11:32;5.90;99.90
12268;DHT22;6196;48.398;11.736;2023-12-20T03:13:59;5.90;99.90
12268;DHT22;6196;48.398;11.736;2023-12-20T03:16:26;5.90;99.90
12268;DHT22;6196;48.398;11.736;2023-12-20T03:18:53;5.90;99.90
12268;DHT22;6196;48.398;11.736;2023-12-20T03:21:20;5.80;99.90
12268;DHT22;6196;48.398;11.736;2023-12-20T03:23:47;5.90;99.90
12268;DHT22;6196;48.398;11.736;2023-12-20T03:26:14;5.90;99.90
12268;DHT22;6196;48.398;11.736;2023-12-20T03:28:41;5.80;99.90
12268;DHT22;6196;48.398;11.736;2023-12-20T03:31:09;5.80;99.90
12268;DHT22;6196;48.398;11.736;2023-12-20T03:33:37;5.80;99.90
12268;DHT22;6196;48.398;11.736;2023-12-20T03:36:04;5.80;99.90
12268;DHT22;6196;48.398;11.736;2023-12-20T03:38:31;5.80;99.90
12268;DHT22;6196;48.398;11.736;2023-12-20T03:40:58;5.80;99.90
12268;DHT22;6196;48.398;11.736;2023-12-20T03:43:26;5.90;99.90
12268;DHT22;6196;48.398;11.736;2023-12-20T03:45:53;5.90;99.90
12268;DHT22;6196;48.398;11.736;2023-12-20T03:48:20;5.80;99.90
12268;DHT22;6196;48.398;11.736;2023-12-20T03:50:47;5.90;99.90
12268;DHT22;6196;48.398;11.736;2023-12-20T03:53:14;5.90;99.90
12268;DHT22;6196;48.398;11.736;2023-12-20T03:55:41;5.90;99.90
12268;DHT22;6196;48.398;11.736;2023-12-20T03:58:08;5.90;99.90
12268;DHT22;6196;48.398;11.736;2023-12-20T04:00:35;6.00;99.90
12268;DHT22;6196;48.398;11.736;2023-12-20T04:03:02;5.90;99.90
12268;DHT22;6196;48.398;11.736;2023-12-20T04:05:29;5.80;99.90
12268;DHT22;6196;48.398;11.736;2023-12-20T04:07:56;5.80;99.90
12268;DHT22;6196;48.398;11.736;2023-12-20T04:10:23;5.60;99.90
12268;DHT22;6196;48.398;11.736;2023-12-20T04:12:50;5.60;99.90
12268;DHT22;6196;48.398;11.736;2023-12-20T04:15:17;5.50;99.90
12268;DHT22;6196;48.398;11.736;2023-12-20T04:17:44;5.40;99.90
12268;DHT22;6196;48.398;11.736;2023-12-20T04:20:11;5.40;99.90
12268;DHT22;6196;48.398;11.736;2023-12-20T04:22:38;5.40;99.90
12268;DHT22;6196;48.398;11.736;2023-12-20T04:25:06;5.30;99.90
12268;DHT22;6196;48.398;11.736;2023-12-20T04:27:33;5.20;99.90
12268;DHT22;6196;48.398;11.736;2023-12-20T04:30:00;5.10;99.90
12268;DHT22;6196;48.398;11.736;2023-12-20T04:32:27;5.10;99.90
12268;DHT22;6196;48.398;11.736;2023-12-20T04:34:53;5.10;99.90
12268;DHT22;6196;48.398;11.736;2023-12-20T04:37:21;5.10;99.90
12268;DHT22;6196;48.398;11.736;2023-12-20T04:39:48;5.10;99.90
12268;DHT22;6196;48.398;11.736;2023-12-20T04:42:15;5.00;99.90
12268;DHT22;6196;48.398;11.736;2023-12-20T04:44:42;5.00;99.90
12268;DHT22;6196;48.398;11.736;2023-12-20T04:47:10;5.00;99.90
12268;DHT22;6196;48.398;11.736;2023-12-20T04:49:37;5.10;99.90
12268;DHT22;6196;48.398;11.736;2023-12-20T04:52:04;5.00;99.90
12268;DHT22;6196;48.398;11.736;2023-12-20T04:54:32;5.00;99.90
12268;DHT22;6196;48.398;11.736;2023-12-20T04:56:59;5.00;99.90
12268;DHT22;6196;48.398;11.736;2023-12-20T04:59:26;5.00;99.90
12268;DHT22;6196;48.398;11.736;2023-12-20T05:01:53;5.00;99.90
12268;DHT22;6196;48.398;11.736;2023-12-20T05:04:20;5.00;99.90
12268;DHT22;6196;48.398;11.736;2023-12-20T05:06:47;5.00;99.90
12268;DHT22;6196;48.398;11.736;2023-12-20T05:09:14;5.50;99.90
12268;DHT22;6196;48.398;11.736;2023-12-20T05:11:41;5.00;99.90
12268;DHT22;6196;48.398;11.736;2023-12-20T05:14:08;4.90;99.90
12268;DHT22;6196;48.398;11.736;2023-12-20T05:16:35;4.90;99.90
12268;DHT22;6196;48.398;11.736;2023-12-20T05:19:02;4.90;99.90
12268;DHT22;6196;48.398;11.736;2023-12-20T05:21:33;4.90;99.90
12268;DHT22;6196;48.398;11.736;2023-12-20T05:24:00;4.90;99.90
12268;DHT22;6196;48.398;11.736;2023-12-20T05:26:27;5.00;99.90
12268;DHT22;6196;48.398;11.736;2023-12-20T05:28:56;5.00;99.90
12268;DHT22;6196;48.398;11.736;2023-12-20T05:31:23;5.00;99.90
12268;DHT22;6196;48.398;11.736;2023-12-20T05:33:49;5.00;99.90
12268;DHT22;6196;48.398;11.736;2023-12-20T05:36:17;5.00;99.90
12268;DHT22;6196;48.398;11.736;2023-12-20T05:38:44;4.90;99.90
12268;DHT22;6196;48.398;11.736;2023-12-20T05:41:11;5.00;99.90
12268;DHT22;6196;48.398;11.736;2023-12-20T05:43:38;5.00;99.90
12268;DHT22;6196;48.398;11.736;2023-12-20T05:46:05;4.90;99.90
12268;DHT22;6196;48.398;11.736;2023-12-20T05:48:32;4.90;99.90
12268;DHT22;6196;48.398;11.736;2023-12-20T05:50:59;5.00;99.90
12268;DHT22;6196;48.398;11.736;2023-12-20T05:53:26;4.90;99.90
12268;DHT22;6196;48.398;11.736;2023-12-20T05:55:53;4.90;99.90
12268;DHT22;6196;48.398;11.736;2023-12-20T05:58:19;4.90;99.90
12268;DHT22;6196;48.398;11.736;2023-12-20T06:00:46;4.90;99.90
12268;DHT22;6196;48.398;11.736;2023-12-20T06:03:15;4.90;99.90
12268;DHT22;6196;48.398;11.736;2023-12-20T06:05:42;5.00;99.90
12268;DHT22;6196;48.398;11.736;2023-12-20T06:08:09;4.90;99.90
12268;DHT22;6196;48.398;11.736;2023-12-20T06:10:36;5.00;99.90
12268;DHT22;6196;48.398;11.736;2023-12-20T06:13:03;4.90;99.90
12268;DHT22;6196;48.398;11.736;2023-12-20T06:15:33;4.90;99.90
12268;DHT22;6196;48.398;11.736;2023-12-20T06:18:00;5.00;99.90
12268;DHT22;6196;48.398;11.736;2023-12-20T06:20:27;5.00;99.90
12268;DHT22;6196;48.398;11.736;2023-12-20T06:22:54;4.90;99.90
12268;DHT22;6196;48.398;11.736;2023-12-20T06:25:21;5.10;99.90
12268;DHT22;6196;48.398;11.736;2023-12-20T06:27:48;4.90;99.90
12268;DHT22;6196;48.398;11.736;2023-12-20T06:30:16;4.90;99.90
12268;DHT22;6196;48.398;11.736;2023-12-20T06:32:43;4.90;99.90
12268;DHT22;6196;48.398;11.736;2023-12-20T06:35:10;5.00;99.90
12268;DHT22;6196;48.398;11.736;2023-12-20T06:37:37;5.00;99.90
12268;DHT22;6196;48.398;11.736;2023-12-20T06:40:04;4.90;99.90
12268;DHT22;6196;48.398;11.736;2023-12-20T06:42:34;4.90;99.90
12268;DHT22;6196;48.398;11.736;2023-12-20T06:45:12;4.90;99.90
12268;DHT22;6196;48.398;11.736;2023-12-20T06:47:39;4.80;99.90
12268;DHT22;6196;48.398;11.736;2023-12-20T06:50:06;4.90;99.90
12268;DHT22;6196;48.398;11.736;2023-12-20T06:52:35;4.90;99.90
12268;DHT22;6196;48.398;11.736;2023-12-20T06:55:01;4.80;99.90
12268;DHT22;6196;48.398;11.736;2023-12-20T06:57:29;4.80;99.90
12268;DHT22;6196;48.398;11.736;2023-12-20T06:59:56;4.80;99.90
12268;DHT22;6196;48.398;11.736;2023-12-20T07:02:24;5.10;99.90
12268;DHT22;6196;48.398;11.736;2023-12-20T07:04:51;4.80;99.90
12268;DHT22;6196;48.398;11.736;2023-12-20T07:07:18;4.80;99.90
12268;DHT22;6196;48.398;11.736;2023-12-20T07:09:45;4.80;99.90
12268;DHT22;6196;48.398;11.736;2023-12-20T07:12:12;4.70;99.90
12268;DHT22;6196;48.398;11.736;2023-12-20T07:14:39;4.80;99.90
12268;DHT22;6196;48.398;11.736;2023-12-20T07:17:06;4.80;99.90
12268;DHT22;6196;48.398;11.736;2023-12-20T07:19:38;4.90;99.90
12268;DHT22;6196;48.398;11.736;2023-12-20T07:22:06;4.80;99.90
12268;DHT22;6196;48.398;11.736;2023-12-20T07:24:34;4.80;99.90
12268;DHT22;6196;48.398;11.736;2023-12-20T07:27:05;4.60;99.90
12268;DHT22;6196;48.398;11.736;2023-12-20T07:29:32;4.60;99.90
12268;DHT22;6196;48.398;11.736;2023-12-20T07:31:59;4.50;99.90
12268;DHT22;6196;48.398;11.736;2023-12-20T07:34:26;4.50;99.90
12268;DHT22;6196;48.398;11.736;2023-12-20T07:36:53;4.50;99.90
12268;DHT22;6196;48.398;11.736;2023-12-20T07:39:20;4.60;99.90
12268;DHT22;6196;48.398;11.736;2023-12-20T07:41:47;4.60;99.90
12268;DHT22;6196;48.398;11.736;2023-12-20T07:44:13;4.50;99.90
12268;DHT22;6196;48.398;11.736;2023-12-20T07:46:42;4.50;99.90
12268;DHT22;6196;48.398;11.736;2023-12-20T07:49:10;4.50;99.90
12268;DHT22;6196;48.398;11.736;2023-12-20T07:51:38;4.50;99.90
12268;DHT22;6196;48.398;11.736;2023-12-20T07:54:05;4.50;99.90
12268;DHT22;6196;48.398;11.736;2023-12-20T07:56:32;4.50;99.90
12268;DHT22;6196;48.398;11.736;2023-12-20T07:58:59;4.50;99.90
12268;DHT22;6196;48.398;11.736;2023-12-20T08:01:27;4.60;99.90
12268;DHT22;6196;48.398;11.736;2023-12-20T08:03:54;4.70;99.90
12268;DHT22;6196;48.398;11.736;2023-12-20T08:06:21;4.70;99.90
12268;DHT22;6196;48.398;11.736;2023-12-20T08:08:48;4.60;99.90
12268;DHT22;6196;48.398;11.736;2023-12-20T08:11:27;4.60;99.90
12268;DHT22;6196;48.398;11.736;2023-12-20T08:13:55;4.70;99.90
12268;DHT22;6196;48.398;11.736;2023-12-20T08:16:22;4.70;99.90
12268;DHT22;6196;48.398;11.736;2023-12-20T08:18:50;4.70;99.90
12268;DHT22;6196;48.398;11.736;2023-12-20T08:21:17;4.70;99.90
12268;DHT22;6196;48.398;11.736;2023-12-20T08:23:46;4.70;99.90
12268;DHT22;6196;48.398;11.736;2023-12-20T08:26:14;4.70;99.90
12268;DHT22;6196;48.398;11.736;2023-12-20T08:28:46;4.70;99.90
12268;DHT22;6196;48.398;11.736;2023-12-20T08:31:15;4.70;99.90
12268;DHT22;6196;48.398;11.736;2023-12-20T08:33:47;4.70;99.90
12268;DHT22;6196;48.398;11.736;2023-12-20T08:36:15;4.70;99.90
12268;DHT22;6196;48.398;11.736;2023-12-20T08:38:44;4.70;99.90
12268;DHT22;6196;48.398;11.736;2023-12-20T08:41:11;4.80;99.90
12268;DHT22;6196;48.398;11.736;2023-12-20T08:43:38;4.80;99.90
12268;DHT22;6196;48.398;11.736;2023-12-20T08:46:08;4.90;99.90
12268;DHT22;6196;48.398;11.736;2023-12-20T08:48:39;4.90;99.90
12268;DHT22;6196;48.398;11.736;2023-12-20T08:51:06;5.00;99.90
12268;DHT22;6196;48.398;11.736;2023-12-20T08:53:35;5.20;99.90
12268;DHT22;6196;48.398;11.736;2023-12-20T08:56:02;5.10;99.90
12268;DHT22;6196;48.398;11.736;2023-12-20T08:58:29;5.10;99.90
12268;DHT22;6196;48.398;11.736;2023-12-20T09:00:56;5.20;99.90
12268;DHT22;6196;48.398;11.736;2023-12-20T09:03:24;5.30;99.90
12268;DHT22;6196;48.398;11.736;2023-12-20T09:05:52;5.20;99.90
12268;DHT22;6196;48.398;11.736;2023-12-20T09:08:18;5.30;99.90
12268;DHT22;6196;48.398;11.736;2023-12-20T09:10:45;5.40;99.90
12268;DHT22;6196;48.398;11.736;2023-12-20T09:13:12;5.40;99.90
12268;DHT22;6196;48.398;11.736;2023-12-20T09:15:39;5.40;99.90
12268;DHT22;6196;48.398;11.736;2023-12-20T09:18:07;5.40;99.90
12268;DHT22;6196;48.398;11.736;2023-12-20T09:20:34;5.30;99.90
12268;DHT22;6196;48.398;11.736;2023-12-20T09:23:02;5.30;99.90
12268;DHT22;6196;48.398;11.736;2023-12-20T09:25:29;5.20;99.90
12268;DHT22;6196;48.398;11.736;2023-12-20T09:27:56;5.30;99.90
12268;DHT22;6196;48.398;11.736;2023-12-20T09:30:24;5.10;99.90
12268;DHT22;6196;48.398;11.736;2023-12-20T09:32:54;5.20;99.90
12268;DHT22;6196;48.398;11.736;2023-12-20T09:35:22;5.30;99.90
12268;DHT22;6196;48.398;11.736;2023-12-20T09:37:49;5.40;99.90
12268;DHT22;6196;48.398;11.736;2023-12-20T09:40:18;5.30;99.90
12268;DHT22;6196;48.398;11.736;2023-12-20T09:43:00;5.50;99.90
12268;DHT22;6196;48.398;11.736;2023-12-20T09:45:31;5.50;99.90
12268;DHT22;6196;48.398;11.736;2023-12-20T09:47:58;5.60;99.90
12268;DHT22;6196;48.398;11.736;2023-12-20T09:50:26;5.50;99.90
12268;DHT22;6196;48.398;11.736;2023-12-20T09:52:54;5.40;99.90
12268;DHT22;6196;48.398;11.736;2023-12-20T09:55:25;5.50;99.90
12268;DHT22;6196;48.398;11.736;2023-12-20T09:57:54;5.50;99.90
12268;DHT22;6196;48.398;11.736;2023-12-20T10:00:21;5.50;99.90
12268;DHT22;6196;48.398;11.736;2023-12-20T10:02:57;5.60;99.90
12268;DHT22;6196;48.398;11.736;2023-12-20T10:05:34;5.60;99.90
12268;DHT22;6196;48.398;11.736;2023-12-20T10:08:02;5.60;99.90
12268;DHT22;6196;48.398;11.736;2023-12-20T10:10:30;5.80;99.90
12268;DHT22;6196;48.398;11.736;2023-12-20T10:13:11;5.90;99.90
12268;DHT22;6196;48.398;11.736;2023-12-20T10:15:40;6.00;99.90
12268;DHT22;6196;48.398;11.736;2023-12-20T10:18:09;6.00;99.90
12268;DHT22;6196;48.398;11.736;2023-12-20T10:20:37;6.00;99.90
12268;DHT22;6196;48.398;11.736;2023-12-20T10:23:04;6.00;99.90
12268;DHT22;6196;48.398;11.736;2023-12-20T10:25:31;6.00;99.90
12268;DHT22;6196;48.398;11.736;2023-12-20T10:28:15;5.90;99.90
12268;DHT22;6196;48.398;11.736;2023-12-20T10:30:45;5.80;99.90
12268;DHT22;6196;48.398;11.736;2023-12-20T10:33:13;5.70;99.90
12268;DHT22;6196;48.398;11.736;2023-12-20T10:35:40;5.80;99.90
12268;DHT22;6196;48.398;11.736;2023-12-20T10:38:12;5.90;99.90
12268;DHT22;6196;48.398;11.736;2023-12-20T10:40:41;5.70;99.90
12268;DHT22;6196;48.398;11.736;2023-12-20T10:43:08;5.60;99.90
12268;DHT22;6196;48.398;11.736;2023-12-20T10:45:36;5.80;99.90
12268;DHT22;6196;48.398;11.736;2023-12-20T10:48:04;5.80;99.90
12268;DHT22;6196;48.398;11.736;2023-12-20T10:50:31;5.80;99.90
12268;DHT22;6196;48.398;11.736;2023-12-20T10:52:59;5.90;99.90
12268;DHT22;6196;48.398;11.736;2023-12-20T10:55:27;5.80;99.90
12268;DHT22;6196;48.398;11.736;2023-12-20T10:58:07;6.00;99.90
12268;DHT22;6196;48.398;11.736;2023-12-20T11:00:41;5.90;99.90
12268;DHT22;6196;48.398;11.736;2023-12-20T11:03:12;6.00;99.90
12268;DHT22;6196;48.398;11.736;2023-12-20T11:05:58;6.00;99.90
12268;DHT22;6196;48.398;11.736;2023-12-20T11:08:36;6.00;99.90
12268;DHT22;6196;48.398;11.736;2023-12-20T11:11:32;5.90;99.90
12268;DHT22;6196;48.398;11.736;2023-12-20T11:14:07;6.00;99.90
12268;DHT22;6196;48.398;11.736;2023-12-20T11:16:38;5.90;99.90
12268;DHT22;6196;48.398;11.736;2023-12-20T11:19:18;6.10;99.90
12268;DHT22;6196;48.398;11.736;2023-12-20T11:21:46;6.40;99.90
12268;DHT22;6196;48.398;11.736;2023-12-20T11:24:15;6.40;99.90
12268;DHT22;6196;48.398;11.736;2023-12-20T11:26:47;6.50;99.90
12268;DHT22;6196;48.398;11.736;2023-12-20T11:29:32;6.50;99.90
12268;DHT22;6196;48.398;11.736;2023-12-20T11:32:36;6.50;99.90
12268;DHT22;6196;48.398;11.736;2023-12-20T11:34:58;6.50;99.90
12268;DHT22;6196;48.398;11.736;2023-12-20T11:37:31;6.50;99.90
12268;DHT22;6196;48.398;11.736;2023-12-20T11:40:07;6.60;99.90
12268;DHT22;6196;48.398;11.736;2023-12-20T11:42:48;6.60;99.90
12268;DHT22;6196;48.398;11.736;2023-12-20T11:45:21;6.50;99.90
12268;DHT22;6196;48.398;11.736;2023-12-20T11:47:50;6.50;99.90
12268;DHT22;6196;48.398;11.736;2023-12-20T11:50:18;6.70;99.90
12268;DHT22;6196;48.398;11.736;2023-12-20T11:52:47;6.70;99.90
12268;DHT22;6196;48.398;11.736;2023-12-20T11:55:15;6.90;99.90
12268;DHT22;6196;48.398;11.736;2023-12-20T11:57:43;6.70;99.90
12268;DHT22;6196;48.398;11.736;2023-12-20T12:00:13;6.80;99.90
12268;DHT22;6196;48.398;11.736;2023-12-20T12:02:41;6.80;99.90
12268;DHT22;6196;48.398;11.736;2023-12-20T12:05:08;6.70;99.90
12268;DHT22;6196;48.398;11.736;2023-12-20T12:07:35;6.80;99.90
12268;DHT22;6196;48.398;11.736;2023-12-20T12:10:03;6.90;99.90
12268;DHT22;6196;48.398;11.736;2023-12-20T12:12:30;6.80;99.90
12268;DHT22;6196;48.398;11.736;2023-12-20T12:14:59;6.60;99.90
12268;DHT22;6196;48.398;11.736;2023-12-20T12:17:26;6.40;99.90
12268;DHT22;6196;48.398;11.736;2023-12-20T12:20:05;6.50;99.90
12268;DHT22;6196;48.398;11.736;2023-12-20T12:22:33;6.60;99.90
12268;DHT22;6196;48.398;11.736;2023-12-20T12:25:10;6.80;99.90
12268;DHT22;6196;48.398;11.736;2023-12-20T12:27:42;7.60;99.90
12268;DHT22;6196;48.398;11.736;2023-12-20T12:30:10;7.80;99.90
12268;DHT22;6196;48.398;11.736;2023-12-20T12:32:39;8.00;99.90
12268;DHT22;6196;48.398;11.736;2023-12-20T12:35:07;8.00;99.90
12268;DHT22;6196;48.398;11.736;2023-12-20T12:37:37;8.20;99.90
12268;DHT22;6196;48.398;11.736;2023-12-20T12:40:13;8.00;99.90
12268;DHT22;6196;48.398;11.736;2023-12-20T12:42:42;7.80;99.90
12268;DHT22;6196;48.398;11.736;2023-12-20T12:45:11;8.50;99.90
12268;DHT22;6196;48.398;11.736;2023-12-20T12:47:39;10.80;99.90
12268;DHT22;6196;48.398;11.736;2023-12-20T12:50:06;12.80;99.90
12268;DHT22;6196;48.398;11.736;2023-12-20T12:52:34;13.90;99.90
12268;DHT22;6196;48.398;11.736;2023-12-20T12:55:02;13.70;99.90
12268;DHT22;6196;48.398;11.736;2023-12-20T12:57:30;13.10;99.90
12268;DHT22;6196;48.398;11.736;2023-12-20T12:59:57;12.50;99.90
12268;DHT22;6196;48.398;11.736;2023-12-20T13:02:25;11.50;99.90
12268;DHT22;6196;48.398;11.736;2023-12-20T13:04:52;10.60;99.90
12268;DHT22;6196;48.398;11.736;2023-12-20T13:07:19;9.80;99.90
12268;DHT22;6196;48.398;11.736;2023-12-20T13:09:46;8.90;99.90
12268;DHT22;6196;48.398;11.736;2023-12-20T13:12:13;8.20;99.90
12268;DHT22;6196;48.398;11.736;2023-12-20T13:14:40;7.60;99.90
12268;DHT22;6196;48.398;11.736;2023-12-20T13:17:07;7.10;99.90
12268;DHT22;6196;48.398;11.736;2023-12-20T13:19:34;7.00;99.90
12268;DHT22;6196;48.398;11.736;2023-12-20T13:22:02;7.00;99.90
12268;DHT22;6196;48.398;11.736;2023-12-20T13:24:29;7.10;99.90
12268;DHT22;6196;48.398;11.736;2023-12-20T13:26:56;6.90;99.90
12268;DHT22;6196;48.398;11.736;2023-12-20T13:29:24;6.60;99.90
12268;DHT22;6196;48.398;11.736;2023-12-20T13:31:53;6.50;99.90
12268;DHT22;6196;48.398;11.736;2023-12-20T13:34:20;6.30;99.90
12268;DHT22;6196;48.398;11.736;2023-12-20T13:36:48;6.20;99.90
12268;DHT22;6196;48.398;11.736;2023-12-20T13:39:17;6.20;99.90
12268;DHT22;6196;48.398;11.736;2023-12-20T13:41:44;6.20;99.90
12268;DHT22;6196;48.398;11.736;2023-12-20T13:44:11;6.30;99.90
12268;DHT22;6196;48.398;11.736;2023-12-20T13:46:40;6.30;99.90
12268;DHT22;6196;48.398;11.736;2023-12-20T13:49:08;6.20;99.90
12268;DHT22;6196;48.398;11.736;2023-12-20T13:51:35;6.20;99.90
12268;DHT22;6196;48.398;11.736;2023-12-20T13:54:02;6.10;99.90
12268;DHT22;6196;48.398;11.736;2023-12-20T13:56:29;6.10;99.90
12268;DHT22;6196;48.398;11.736;2023-12-20T13:58:56;6.10;99.90
12268;DHT22;6196;48.398;11.736;2023-12-20T14:01:23;6.00;99.90
12268;DHT22;6196;48.398;11.736;2023-12-20T14:03:50;5.90;99.90
12268;DHT22;6196;48.398;11.736;2023-12-20T14:06:17;6.00;99.90
12268;DHT22;6196;48.398;11.736;2023-12-20T14:08:44;5.90;99.90
12268;DHT22;6196;48.398;11.736;2023-12-20T14:11:11;5.80;99.90
12268;DHT22;6196;48.398;11.736;2023-12-20T14:13:40;5.70;99.90
12268;DHT22;6196;48.398;11.736;2023-12-20T14:16:07;5.50;99.90
12268;DHT22;6196;48.398;11.736;2023-12-20T14:18:34;5.60;99.90
12268;DHT22;6196;48.398;11.736;2023-12-20T14:21:01;5.60;99.90
12268;DHT22;6196;48.398;11.736;2023-12-20T14:23:28;5.70;99.90
12268;DHT22;6196;48.398;11.736;2023-12-20T14:25:55;5.60;99.90
12268;DHT22;6196;48.398;11.736;2023-12-20T14:28:23;5.60;99.90
12268;DHT22;6196;48.398;11.736;2023-12-20T14:30:50;5.60;99.90
12268;DHT22;6196;48.398;11.736;2023-12-20T14:33:17;5.40;99.90
12268;DHT22;6196;48.398;11.736;2023-12-20T14:35:47;5.40;99.90
12268;DHT22;6196;48.398;11.736;2023-12-20T14:38:14;5.40;99.90
12268;DHT22;6196;48.398;11.736;2023-12-20T14:40:42;5.10;99.90
12268;DHT22;6196;48.398;11.736;2023-12-20T14:43:09;5.20;99.90
12268;DHT22;6196;48.398;11.736;2023-12-20T14:45:36;5.20;99.90
12268;DHT22;6196;48.398;11.736;2023-12-20T14:48:04;5.10;99.90
12268;DHT22;6196;48.398;11.736;2023-12-20T14:50:31;5.10;99.90
12268;DHT22;6196;48.398;11.736;2023-12-20T14:52:58;4.70;99.90
12268;DHT22;6196;48.398;11.736;2023-12-20T14:55:26;4.80;99.90
12268;DHT22;6196;48.398;11.736;2023-12-20T14:57:56;4.60;99.90
12268;DHT22;6196;48.398;11.736;2023-12-20T15:00:23;4.50;99.90
12268;DHT22;6196;48.398;11.736;2023-12-20T15:02:50;4.50;99.90
12268;DHT22;6196;48.398;11.736;2023-12-20T15:05:17;4.40;99.90
12268;DHT22;6196;48.398;11.736;2023-12-20T15:07:45;4.30;99.90
12268;DHT22;6196;48.398;11.736;2023-12-20T15:10:15;4.30;99.90
12268;DHT22;6196;48.398;11.736;2023-12-20T15:12:43;4.40;99.90
12268;DHT22;6196;48.398;11.736;2023-12-20T15:15:11;4.40;99.90
12268;DHT22;6196;48.398;11.736;2023-12-20T15:17:38;4.30;99.90
12268;DHT22;6196;48.398;11.736;2023-12-20T15:20:05;4.30;99.90
12268;DHT22;6196;48.398;11.736;2023-12-20T15:22:34;4.30;99.90
12268;DHT22;6196;48.398;11.736;2023-12-20T15:25:01;4.40;99.90
12268;DHT22;6196;48.398;11.736;2023-12-20T15:27:29;4.30;99.90
12268;DHT22;6196;48.398;11.736;2023-12-20T15:29:56;4.10;99.90
12268;DHT22;6196;48.398;11.736;2023-12-20T15:32:23;4.20;99.90
12268;DHT22;6196;48.398;11.736;2023-12-20T15:34:50;4.10;99.90
12268;DHT22;6196;48.398;11.736;2023-12-20T15:37:19;4.10;99.90
12268;DHT22;6196;48.398;11.736;2023-12-20T15:39:46;4.00;99.90
12268;DHT22;6196;48.398;11.736;2023-12-20T15:42:13;4.00;99.90
12268;DHT22;6196;48.398;11.736;2023-12-20T15:44:40;4.00;99.90
12268;DHT22;6196;48.398;11.736;2023-12-20T15:47:08;3.90;99.90
12268;DHT22;6196;48.398;11.736;2023-12-20T15:49:34;3.80;99.90
12268;DHT22;6196;48.398;11.736;2023-12-20T15:52:02;3.90;99.90